sensor_id;sensor_type;location;lat;lon;timestamp;pressure;altitude;pressure_sealevel;temperature
71960;BMP280;59832;51.146;14.024;2023-12-14T00:00:40;97023.06;;;5.55
71960;BMP280;59832;51.146;14.024;2023-12-14T00:03:07;97017.97;;;5.52
71960;BMP280;59832;51.146;14.024;2023-12-14T00:05:34;97022.13;;;5.44
71960;BMP280;59832;51.146;14.024;2023-12-14T00:08:01;97030.38;;;5.41
71960;BMP280;59832;51.146;14.024;2023-12-14T00:10:27;97020.28;;;5.41
71960;BMP280;59832;51.146;14.024;2023-12-14T00:12:54;97027.50;;;5.43
71960;BMP280;59832;51.146;14.024;2023-12-14T00:15:21;97029.63;;;5.41
71960;BMP280;59832;51.146;14.024;2023-12-14T00:17:47;97031.47;;;5.44
71960;BMP280;59832;51.146;14.024;2023-12-14T00:20:14;97033.22;;;5.40
71960;BMP280;59832;51.146;14.024;2023-12-14T00:22:40;97036.53;;;5.44
71960;BMP280;59832;51.146;14.024;2023-12-14T00:25:07;97038.66;;;5.42
71960;BMP280;59832;51.146;14.024;2023-12-14T00:27:34;97037.53;;;5.39
71960;BMP280;59832;51.146;14.024;2023-12-14T00:30:01;97041.06;;;5.54
71960;BMP280;59832;51.146;14.024;2023-12-14T00:32:27;97037.84;;;5.38
71960;BMP280;59832;51.146;14.024;2023-12-14T00:34:53;97045.59;;;5.29
71960;BMP280;59832;51.146;14.024;2023-12-14T00:37:20;97044.84;;;5.29
71960;BMP280;59832;51.146;14.024;2023-12-14T00:39:46;97051.66;;;5.25
71960;BMP280;59832;51.146;14.024;2023-12-14T00:42:13;97069.31;;;5.25
71960;BMP280;59832;51.146;14.024;2023-12-14T00:44:39;97068.47;;;5.21
71960;BMP280;59832;51.146;14.024;2023-12-14T00:47:05;97068.16;;;5.22
71960;BMP280;59832;51.146;14.024;2023-12-14T00:49:32;97072.22;;;5.27
71960;BMP280;59832;51.146;14.024;2023-12-14T00:51:58;97079.72;;;5.23
71960;BMP280;59832;51.146;14.024;2023-12-14T00:54:25;97079.44;;;5.28
71960;BMP280;59832;51.146;14.024;2023-12-14T00:56:51;97093.13;;;5.27
71960;BMP280;59832;51.146;14.024;2023-12-14T00:59:18;97092.41;;;5.27
71960;BMP280;59832;51.146;14.024;2023-12-14T01:01:44;97088.97;;;5.35
71960;BMP280;59832;51.146;14.024;2023-12-14T01:04:10;97089.03;;;5.38
71960;BMP280;59832;51.146;14.024;2023-12-14T01:06:37;97091.88;;;5.37
71960;BMP280;59832;51.146;14.024;2023-12-14T01:09:03;97104.50;;;5.37
71960;BMP280;59832;51.146;14.024;2023-12-14T01:11:30;97094.56;;;5.28
71960;BMP280;59832;51.146;14.024;2023-12-14T01:13:56;97100.63;;;5.24
71960;BMP280;59832;51.146;14.024;2023-12-14T01:16:25;97109.09;;;5.15
71960;BMP280;59832;51.146;14.024;2023-12-14T01:18:51;97113.63;;;5.10
71960;BMP280;59832;51.146;14.024;2023-12-14T01:21:18;97122.63;;;5.07
71960;BMP280;59832;51.146;14.024;2023-12-14T01:23:44;97114.34;;;5.10
71960;BMP280;59832;51.146;14.024;2023-12-14T01:26:10;97120.97;;;5.15
71960;BMP280;59832;51.146;14.024;2023-12-14T01:28:37;97117.47;;;5.20
71960;BMP280;59832;51.146;14.024;2023-12-14T01:31:04;97120.38;;;5.37
71960;BMP280;59832;51.146;14.024;2023-12-14T01:33:30;97110.22;;;5.34
71960;BMP280;59832;51.146;14.024;2023-12-14T01:35:57;97116.84;;;5.07
71960;BMP280;59832;51.146;14.024;2023-12-14T01:38:23;97129.75;;;5.05
71960;BMP280;59832;51.146;14.024;2023-12-14T01:40:49;97119.38;;;4.91
71960;BMP280;59832;51.146;14.024;2023-12-14T01:43:16;97125.44;;;4.90
71960;BMP280;59832;51.146;14.024;2023-12-14T01:45:43;97127.38;;;4.97
71960;BMP280;59832;51.146;14.024;2023-12-14T01:48:11;97123.41;;;4.96
71960;BMP280;59832;51.146;14.024;2023-12-14T01:50:37;97131.59;;;4.93
71960;BMP280;59832;51.146;14.024;2023-12-14T01:53:04;97123.31;;;4.92
71960;BMP280;59832;51.146;14.024;2023-12-14T01:55:30;97131.69;;;4.96
71960;BMP280;59832;51.146;14.024;2023-12-14T01:57:56;97130.00;;;5.00
71960;BMP280;59832;51.146;14.024;2023-12-14T02:00:58;97133.75;;;4.91
71960;BMP280;59832;51.146;14.024;2023-12-14T02:03:16;97138.38;;;4.89
71960;BMP280;59832;51.146;14.024;2023-12-14T02:05:42;97141.22;;;4.87
71960;BMP280;59832;51.146;14.024;2023-12-14T02:08:09;97145.94;;;4.89
71960;BMP280;59832;51.146;14.024;2023-12-14T02:10:36;97146.34;;;4.91
71960;BMP280;59832;51.146;14.024;2023-12-14T02:13:02;97154.56;;;4.88
71960;BMP280;59832;51.146;14.024;2023-12-14T02:15:29;97150.31;;;4.92
71960;BMP280;59832;51.146;14.024;2023-12-14T02:17:56;97142.19;;;4.98
71960;BMP280;59832;51.146;14.024;2023-12-14T02:20:22;97144.16;;;5.05
71960;BMP280;59832;51.146;14.024;2023-12-14T02:22:49;97141.69;;;5.08
71960;BMP280;59832;51.146;14.024;2023-12-14T02:25:16;97143.25;;;4.97
71960;BMP280;59832;51.146;14.024;2023-12-14T02:27:43;97146.09;;;4.96
71960;BMP280;59832;51.146;14.024;2023-12-14T02:30:10;97147.97;;;4.83
71960;BMP280;59832;51.146;14.024;2023-12-14T02:32:37;97157.06;;;4.88
71960;BMP280;59832;51.146;14.024;2023-12-14T02:35:04;97174.13;;;4.79
71960;BMP280;59832;51.146;14.024;2023-12-14T02:37:30;97173.81;;;4.80
71960;BMP280;59832;51.146;14.024;2023-12-14T02:39:57;97173.91;;;4.84
71960;BMP280;59832;51.146;14.024;2023-12-14T02:42:24;97171.31;;;4.96
71960;BMP280;59832;51.146;14.024;2023-12-14T02:44:50;97168.78;;;4.96
71960;BMP280;59832;51.146;14.024;2023-12-14T02:47:16;97171.47;;;4.87
71960;BMP280;59832;51.146;14.024;2023-12-14T02:49:43;97169.69;;;4.88
71960;BMP280;59832;51.146;14.024;2023-12-14T02:52:10;97164.94;;;4.86
71960;BMP280;59832;51.146;14.024;2023-12-14T02:54:38;97167.56;;;4.90
71960;BMP280;59832;51.146;14.024;2023-12-14T02:57:04;97175.78;;;4.87
71960;BMP280;59832;51.146;14.024;2023-12-14T02:59:31;97173.91;;;4.84
71960;BMP280;59832;51.146;14.024;2023-12-14T03:01:57;97173.19;;;4.83
71960;BMP280;59832;51.146;14.024;2023-12-14T03:04:24;97179.16;;;4.79
71960;BMP280;59832;51.146;14.024;2023-12-14T03:06:51;97182.31;;;4.75
71960;BMP280;59832;51.146;14.024;2023-12-14T03:09:17;97193.38;;;4.71
71960;BMP280;59832;51.146;14.024;2023-12-14T03:11:45;97190.03;;;4.67
71960;BMP280;59832;51.146;14.024;2023-12-14T03:14:11;97183.13;;;4.64
71960;BMP280;59832;51.146;14.024;2023-12-14T03:16:38;97195.72;;;4.64
71960;BMP280;59832;51.146;14.024;2023-12-14T03:19:04;97194.25;;;4.63
71960;BMP280;59832;51.146;14.024;2023-12-14T03:21:31;97204.44;;;4.66
71960;BMP280;59832;51.146;14.024;2023-12-14T03:23:58;97210.84;;;4.64
71960;BMP280;59832;51.146;14.024;2023-12-14T03:26:24;97209.06;;;4.64
71960;BMP280;59832;51.146;14.024;2023-12-14T03:28:50;97204.75;;;4.65
71960;BMP280;59832;51.146;14.024;2023-12-14T03:31:17;97213.06;;;4.65
71960;BMP280;59832;51.146;14.024;2023-12-14T03:33:43;97217.97;;;4.62
71960;BMP280;59832;51.146;14.024;2023-12-14T03:36:10;97219.34;;;4.59
71960;BMP280;59832;51.146;14.024;2023-12-14T03:38:36;97222.72;;;4.63
71960;BMP280;59832;51.146;14.024;2023-12-14T03:41:03;97226.38;;;4.66
71960;BMP280;59832;51.146;14.024;2023-12-14T03:43:29;97229.97;;;4.65
71960;BMP280;59832;51.146;14.024;2023-12-14T03:45:55;97232.56;;;4.68
71960;BMP280;59832;51.146;14.024;2023-12-14T03:48:22;97240.22;;;4.72
71960;BMP280;59832;51.146;14.024;2023-12-14T03:50:48;97246.00;;;4.72
71960;BMP280;59832;51.146;14.024;2023-12-14T03:53:15;97242.41;;;4.73
71960;BMP280;59832;51.146;14.024;2023-12-14T03:55:41;97252.25;;;4.79
71960;BMP280;59832;51.146;14.024;2023-12-14T03:58:07;97261.28;;;4.80
71960;BMP280;59832;51.146;14.024;2023-12-14T04:00:34;97255.50;;;4.79
71960;BMP280;59832;51.146;14.024;2023-12-14T04:03:00;97255.94;;;4.81
71960;BMP280;59832;51.146;14.024;2023-12-14T04:05:27;97260.25;;;4.81
71960;BMP280;59832;51.146;14.024;2023-12-14T04:07:53;97257.09;;;4.84
71960;BMP280;59832;51.146;14.024;2023-12-14T04:10:20;97265.38;;;4.84
71960;BMP280;59832;51.146;14.024;2023-12-14T04:12:46;97275.38;;;4.81
71960;BMP280;59832;51.146;14.024;2023-12-14T04:15:13;97270.31;;;4.81
71960;BMP280;59832;51.146;14.024;2023-12-14T04:17:39;97272.84;;;4.81
71960;BMP280;59832;51.146;14.024;2023-12-14T04:20:06;97278.94;;;4.80
71960;BMP280;59832;51.146;14.024;2023-12-14T04:22:33;97279.03;;;4.83
71960;BMP280;59832;51.146;14.024;2023-12-14T04:25:00;97278.72;;;4.85
71960;BMP280;59832;51.146;14.024;2023-12-14T04:27:26;97282.69;;;4.86
71960;BMP280;59832;51.146;14.024;2023-12-14T04:29:55;97281.41;;;4.92
71960;BMP280;59832;51.146;14.024;2023-12-14T04:32:21;97280.44;;;4.96
71960;BMP280;59832;51.146;14.024;2023-12-14T04:34:47;97284.75;;;4.96
71960;BMP280;59832;51.146;14.024;2023-12-14T04:37:14;97284.56;;;5.01
71960;BMP280;59832;51.146;14.024;2023-12-14T04:39:40;97283.81;;;5.00
71960;BMP280;59832;51.146;14.024;2023-12-14T04:42:06;97290.50;;;5.08
71960;BMP280;59832;51.146;14.024;2023-12-14T04:44:33;97292.63;;;5.06
71960;BMP280;59832;51.146;14.024;2023-12-14T04:46:59;97293.97;;;5.04
71960;BMP280;59832;51.146;14.024;2023-12-14T04:49:25;97298.78;;;5.09
71960;BMP280;59832;51.146;14.024;2023-12-14T04:51:52;97296.63;;;5.07
71960;BMP280;59832;51.146;14.024;2023-12-14T04:54:18;97307.75;;;5.06
71960;BMP280;59832;51.146;14.024;2023-12-14T04:56:45;97313.84;;;5.05
71960;BMP280;59832;51.146;14.024;2023-12-14T04:59:12;97324.25;;;5.04
71960;BMP280;59832;51.146;14.024;2023-12-14T05:01:38;97320.66;;;5.05
71960;BMP280;59832;51.146;14.024;2023-12-14T05:04:05;97326.03;;;5.03
71960;BMP280;59832;51.146;14.024;2023-12-14T05:06:31;97332.22;;;5.06
71960;BMP280;59832;51.146;14.024;2023-12-14T05:08:59;97339.06;;;5.05
71960;BMP280;59832;51.146;14.024;2023-12-14T05:11:28;97337.69;;;5.08
71960;BMP280;59832;51.146;14.024;2023-12-14T05:13:54;97349.56;;;5.07
71960;BMP280;59832;51.146;14.024;2023-12-14T05:16:21;97358.50;;;5.05
71960;BMP280;59832;51.146;14.024;2023-12-14T05:18:47;97361.44;;;5.07
71960;BMP280;59832;51.146;14.024;2023-12-14T05:21:16;97369.31;;;5.05
71960;BMP280;59832;51.146;14.024;2023-12-14T05:23:42;97373.72;;;5.08
71960;BMP280;59832;51.146;14.024;2023-12-14T05:26:09;97370.84;;;5.10
71960;BMP280;59832;51.146;14.024;2023-12-14T05:28:36;97375.28;;;5.13
71960;BMP280;59832;51.146;14.024;2023-12-14T05:31:02;97383.56;;;5.13
71960;BMP280;59832;51.146;14.024;2023-12-14T05:33:29;97375.53;;;5.08
71960;BMP280;59832;51.146;14.024;2023-12-14T05:35:57;97382.53;;;5.14
71960;BMP280;59832;51.146;14.024;2023-12-14T05:38:24;97389.19;;;5.07
71960;BMP280;59832;51.146;14.024;2023-12-14T05:40:50;97399.91;;;5.04
71960;BMP280;59832;51.146;14.024;2023-12-14T05:43:16;97404.94;;;5.04
71960;BMP280;59832;51.146;14.024;2023-12-14T05:45:43;97405.69;;;5.04
71960;BMP280;59832;51.146;14.024;2023-12-14T05:48:09;97404.94;;;5.04
71960;BMP280;59832;51.146;14.024;2023-12-14T05:50:35;97409.38;;;5.07
71960;BMP280;59832;51.146;14.024;2023-12-14T05:53:02;97404.72;;;5.09
71960;BMP280;59832;51.146;14.024;2023-12-14T05:55:28;97406.16;;;5.10
71960;BMP280;59832;51.146;14.024;2023-12-14T05:57:55;97418.06;;;5.09
71960;BMP280;59832;51.146;14.024;2023-12-14T06:00:22;97421.97;;;5.07
71960;BMP280;59832;51.146;14.024;2023-12-14T06:02:49;97428.81;;;5.06
71960;BMP280;59832;51.146;14.024;2023-12-14T06:05:15;97431.53;;;5.01
71960;BMP280;59832;51.146;14.024;2023-12-14T06:07:42;97436.25;;;5.03
71960;BMP280;59832;51.146;14.024;2023-12-14T06:10:09;97446.56;;;4.98
71960;BMP280;59832;51.146;14.024;2023-12-14T06:12:36;97450.88;;;4.97
71960;BMP280;59832;51.146;14.024;2023-12-14T06:15:03;97444.22;;;4.93
71960;BMP280;59832;51.146;14.024;2023-12-14T06:17:29;97454.00;;;4.94
71960;BMP280;59832;51.146;14.024;2023-12-14T06:19:56;97460.44;;;4.92
71960;BMP280;59832;51.146;14.024;2023-12-14T06:22:23;97461.16;;;4.92
71960;BMP280;59832;51.146;14.024;2023-12-14T06:24:49;97465.06;;;4.90
71960;BMP280;59832;51.146;14.024;2023-12-14T06:27:16;97469.06;;;4.91
71960;BMP280;59832;51.146;14.024;2023-12-14T06:29:42;97470.91;;;4.94
71960;BMP280;59832;51.146;14.024;2023-12-14T06:32:09;97482.59;;;4.98
71960;BMP280;59832;51.146;14.024;2023-12-14T06:34:35;97484.16;;;5.03
71960;BMP280;59832;51.146;14.024;2023-12-14T06:37:02;97488.81;;;5.01
71960;BMP280;59832;51.146;14.024;2023-12-14T06:39:29;97488.25;;;4.95
71960;BMP280;59832;51.146;14.024;2023-12-14T06:41:55;97492.06;;;4.89
71960;BMP280;59832;51.146;14.024;2023-12-14T06:44:23;97499.31;;;4.91
71960;BMP280;59832;51.146;14.024;2023-12-14T06:46:51;97499.38;;;4.94
71960;BMP280;59832;51.146;14.024;2023-12-14T06:49:17;97502.47;;;4.88
71960;BMP280;59832;51.146;14.024;2023-12-14T06:51:44;97511.06;;;4.87
71960;BMP280;59832;51.146;14.024;2023-12-14T06:54:11;97511.28;;;4.82
71960;BMP280;59832;51.146;14.024;2023-12-14T06:56:37;97526.84;;;4.84
71960;BMP280;59832;51.146;14.024;2023-12-14T06:59:04;97520.41;;;4.86
71960;BMP280;59832;51.146;14.024;2023-12-14T07:01:30;97528.41;;;4.88
71960;BMP280;59832;51.146;14.024;2023-12-14T07:03:56;97542.28;;;4.82
71960;BMP280;59832;51.146;14.024;2023-12-14T07:06:23;97543.63;;;4.80
71960;BMP280;59832;51.146;14.024;2023-12-14T07:08:49;97547.19;;;4.79
71960;BMP280;59832;51.146;14.024;2023-12-14T07:11:16;97545.84;;;4.81
71960;BMP280;59832;51.146;14.024;2023-12-14T07:13:43;97554.44;;;4.80
71960;BMP280;59832;51.146;14.024;2023-12-14T07:16:10;97554.16;;;4.82
71960;BMP280;59832;51.146;14.024;2023-12-14T07:18:37;97560.66;;;4.83
71960;BMP280;59832;51.146;14.024;2023-12-14T07:21:04;97566.00;;;4.81
71960;BMP280;59832;51.146;14.024;2023-12-14T07:23:31;97569.88;;;4.79
71960;BMP280;59832;51.146;14.024;2023-12-14T07:25:57;97571.16;;;4.72
71960;BMP280;59832;51.146;14.024;2023-12-14T07:28:28;97577.44;;;4.66
71960;BMP280;59832;51.146;14.024;2023-12-14T07:30:54;97577.84;;;4.68
71960;BMP280;59832;51.146;14.024;2023-12-14T07:33:21;97584.38;;;4.69
71960;BMP280;59832;51.146;14.024;2023-12-14T07:35:47;97590.25;;;4.73
71960;BMP280;59832;51.146;14.024;2023-12-14T07:38:14;97595.41;;;4.77
71960;BMP280;59832;51.146;14.024;2023-12-14T07:40:40;97598.88;;;4.72
71960;BMP280;59832;51.146;14.024;2023-12-14T07:43:07;97607.25;;;4.64
71960;BMP280;59832;51.146;14.024;2023-12-14T07:45:34;97610.50;;;4.65
71960;BMP280;59832;51.146;14.024;2023-12-14T07:48:00;97615.25;;;4.66
71960;BMP280;59832;51.146;14.024;2023-12-14T07:50:27;97626.28;;;4.74
71960;BMP280;59832;51.146;14.024;2023-12-14T07:52:53;97624.25;;;4.67
71960;BMP280;59832;51.146;14.024;2023-12-14T07:55:20;97635.28;;;4.63
71960;BMP280;59832;51.146;14.024;2023-12-14T07:57:47;97630.69;;;4.65
71960;BMP280;59832;51.146;14.024;2023-12-14T08:00:13;97636.75;;;4.64
71960;BMP280;59832;51.146;14.024;2023-12-14T08:02:40;97635.88;;;4.60
71960;BMP280;59832;51.146;14.024;2023-12-14T08:05:06;97634.25;;;4.64
71960;BMP280;59832;51.146;14.024;2023-12-14T08:07:32;97641.91;;;4.67
71960;BMP280;59832;51.146;14.024;2023-12-14T08:09:59;97647.28;;;4.66
71960;BMP280;59832;51.146;14.024;2023-12-14T08:12:25;97654.09;;;4.65
71960;BMP280;59832;51.146;14.024;2023-12-14T08:14:52;97657.66;;;4.64
71960;BMP280;59832;51.146;14.024;2023-12-14T08:17:18;97657.03;;;4.67
71960;BMP280;59832;51.146;14.024;2023-12-14T08:19:45;97664.72;;;4.71
71960;BMP280;59832;51.146;14.024;2023-12-14T08:22:11;97664.78;;;4.62
71960;BMP280;59832;51.146;14.024;2023-12-14T08:24:38;97668.78;;;4.63
71960;BMP280;59832;51.146;14.024;2023-12-14T08:27:05;97675.38;;;4.56
71960;BMP280;59832;51.146;14.024;2023-12-14T08:29:31;97671.47;;;4.58
71960;BMP280;59832;51.146;14.024;2023-12-14T08:31:57;97687.22;;;4.55
71960;BMP280;59832;51.146;14.024;2023-12-14T08:34:25;97692.38;;;4.59
71960;BMP280;59832;51.146;14.024;2023-12-14T08:36:52;97691.75;;;4.41
71960;BMP280;59832;51.146;14.024;2023-12-14T08:39:18;97695.16;;;4.45
71960;BMP280;59832;51.146;14.024;2023-12-14T08:41:45;97701.25;;;4.44
71960;BMP280;59832;51.146;14.024;2023-12-14T08:44:11;97703.47;;;4.46
71960;BMP280;59832;51.146;14.024;2023-12-14T08:46:42;97711.47;;;4.48
71960;BMP280;59832;51.146;14.024;2023-12-14T08:49:08;97715.75;;;4.47
71960;BMP280;59832;51.146;14.024;2023-12-14T08:51:35;97718.88;;;4.44
71960;BMP280;59832;51.146;14.024;2023-12-14T08:54:01;97722.88;;;4.45
71960;BMP280;59832;51.146;14.024;2023-12-14T08:56:27;97732.22;;;4.45
71960;BMP280;59832;51.146;14.024;2023-12-14T08:58:54;97733.88;;;4.41
71960;BMP280;59832;51.146;14.024;2023-12-14T09:01:21;97739.78;;;4.45
71960;BMP280;59832;51.146;14.024;2023-12-14T09:03:47;97751.47;;;4.49
71960;BMP280;59832;51.146;14.024;2023-12-14T09:06:14;97752.94;;;4.50
71960;BMP280;59832;51.146;14.024;2023-12-14T09:08:41;97757.78;;;4.55
71960;BMP280;59832;51.146;14.024;2023-12-14T09:11:08;97757.69;;;4.52
71960;BMP280;59832;51.146;14.024;2023-12-14T09:13:34;97762.00;;;4.43
71960;BMP280;59832;51.146;14.024;2023-12-14T09:16:01;97770.19;;;4.40
71960;BMP280;59832;51.146;14.024;2023-12-14T09:18:27;97771.13;;;4.35
71960;BMP280;59832;51.146;14.024;2023-12-14T09:20:54;97775.84;;;4.37
71960;BMP280;59832;51.146;14.024;2023-12-14T09:23:20;97788.13;;;4.38
71960;BMP280;59832;51.146;14.024;2023-12-14T09:25:47;97779.25;;;4.41
71960;BMP280;59832;51.146;14.024;2023-12-14T09:28:13;97779.66;;;4.43
71960;BMP280;59832;51.146;14.024;2023-12-14T09:30:39;97790.66;;;4.38
71960;BMP280;59832;51.146;14.024;2023-12-14T09:33:06;97793.13;;;4.47
71960;BMP280;59832;51.146;14.024;2023-12-14T09:35:35;97792.88;;;4.40
71960;BMP280;59832;51.146;14.024;2023-12-14T09:38:05;97793.88;;;4.47
71960;BMP280;59832;51.146;14.024;2023-12-14T09:40:32;97787.66;;;4.45
71960;BMP280;59832;51.146;14.024;2023-12-14T09:42:58;97795.47;;;4.52
71960;BMP280;59832;51.146;14.024;2023-12-14T09:45:27;97803.34;;;4.50
71960;BMP280;59832;51.146;14.024;2023-12-14T09:47:53;97807.97;;;4.48
71960;BMP280;59832;51.146;14.024;2023-12-14T09:50:20;97817.00;;;4.49
71960;BMP280;59832;51.146;14.024;2023-12-14T09:52:47;97806.59;;;4.51
71960;BMP280;59832;51.146;14.024;2023-12-14T09:55:15;97821.59;;;4.47
71960;BMP280;59832;51.146;14.024;2023-12-14T09:57:42;97821.72;;;4.51
71960;BMP280;59832;51.146;14.024;2023-12-14T10:00:09;97823.97;;;4.44
71960;BMP280;59832;51.146;14.024;2023-12-14T10:02:40;97831.97;;;4.46
71960;BMP280;59832;51.146;14.024;2023-12-14T10:05:10;97830.63;;;4.48
71960;BMP280;59832;51.146;14.024;2023-12-14T10:07:43;97833.44;;;4.47
71960;BMP280;59832;51.146;14.024;2023-12-14T10:10:10;97835.69;;;4.48
71960;BMP280;59832;51.146;14.024;2023-12-14T10:12:50;97834.31;;;4.51
71960;BMP280;59832;51.146;14.024;2023-12-14T10:15:16;97838.94;;;4.49
71960;BMP280;59832;51.146;14.024;2023-12-14T10:17:43;97835.69;;;4.48
71960;BMP280;59832;51.146;14.024;2023-12-14T10:20:09;97846.63;;;4.52
71960;BMP280;59832;51.146;14.024;2023-12-14T10:22:36;97851.47;;;4.57
71960;BMP280;59832;51.146;14.024;2023-12-14T10:25:03;97855.34;;;4.55
71960;BMP280;59832;51.146;14.024;2023-12-14T10:27:31;97854.63;;;4.54
71960;BMP280;59832;51.146;14.024;2023-12-14T10:29:58;97854.66;;;4.46
71960;BMP280;59832;51.146;14.024;2023-12-14T10:32:25;97856.72;;;4.44
71960;BMP280;59832;51.146;14.024;2023-12-14T10:34:52;97861.16;;;4.47
71960;BMP280;59832;51.146;14.024;2023-12-14T10:37:18;97861.63;;;4.49
71960;BMP280;59832;51.146;14.024;2023-12-14T10:39:45;97856.56;;;4.49
71960;BMP280;59832;51.146;14.024;2023-12-14T10:42:12;97866.66;;;4.49
71960;BMP280;59832;51.146;14.024;2023-12-14T10:44:46;97868.88;;;4.42
71960;BMP280;59832;51.146;14.024;2023-12-14T10:47:34;97871.72;;;4.40
71960;BMP280;59832;51.146;14.024;2023-12-14T10:50:01;97873.50;;;4.40
71960;BMP280;59832;51.146;14.024;2023-12-14T10:52:28;97870.13;;;4.36
71960;BMP280;59832;51.146;14.024;2023-12-14T10:54:59;97880.38;;;4.30
71960;BMP280;59832;51.146;14.024;2023-12-14T10:57:26;97883.63;;;4.31
71960;BMP280;59832;51.146;14.024;2023-12-14T10:59:57;97891.19;;;4.31
71960;BMP280;59832;51.146;14.024;2023-12-14T11:02:24;97893.69;;;4.31
71960;BMP280;59832;51.146;14.024;2023-12-14T11:04:54;97899.34;;;4.28
71960;BMP280;59832;51.146;14.024;2023-12-14T11:10:07;97905.97;;;4.32
71960;BMP280;59832;51.146;14.024;2023-12-14T11:12:34;97922.16;;;4.31
71960;BMP280;59832;51.146;14.024;2023-12-14T11:15:00;97915.47;;;4.27
71960;BMP280;59832;51.146;14.024;2023-12-14T11:17:26;97925.09;;;4.33
71960;BMP280;59832;51.146;14.024;2023-12-14T11:19:55;97919.19;;;4.29
71960;BMP280;59832;51.146;14.024;2023-12-14T11:22:23;97928.97;;;4.31
71960;BMP280;59832;51.146;14.024;2023-12-14T11:24:53;97932.09;;;4.28
71960;BMP280;59832;51.146;14.024;2023-12-14T11:27:22;97931.50;;;4.22
71960;BMP280;59832;51.146;14.024;2023-12-14T11:29:51;97937.41;;;4.18
71960;BMP280;59832;51.146;14.024;2023-12-14T11:32:19;97936.88;;;4.12
71960;BMP280;59832;51.146;14.024;2023-12-14T11:34:46;97938.94;;;4.10
71960;BMP280;59832;51.146;14.024;2023-12-14T11:37:13;97949.44;;;4.21
71960;BMP280;59832;51.146;14.024;2023-12-14T11:39:39;97939.84;;;4.14
71960;BMP280;59832;51.146;14.024;2023-12-14T11:42:06;97942.34;;;4.14
71960;BMP280;59832;51.146;14.024;2023-12-14T11:44:34;97945.59;;;4.23
71960;BMP280;59832;51.146;14.024;2023-12-14T11:47:04;97943.78;;;4.24
71960;BMP280;59832;51.146;14.024;2023-12-14T11:49:30;97943.78;;;4.15
71960;BMP280;59832;51.146;14.024;2023-12-14T11:52:01;97952.06;;;4.24
71960;BMP280;59832;51.146;14.024;2023-12-14T11:54:28;97948.25;;;4.18
71960;BMP280;59832;51.146;14.024;2023-12-14T11:56:54;97948.72;;;4.12
71960;BMP280;59832;51.146;14.024;2023-12-14T11:59:20;97954.78;;;4.11
71960;BMP280;59832;51.146;14.024;2023-12-14T12:01:54;97950.66;;;4.15
71960;BMP280;59832;51.146;14.024;2023-12-14T12:04:22;97954.94;;;4.14
71960;BMP280;59832;51.146;14.024;2023-12-14T12:06:49;97964.88;;;4.02
71960;BMP280;59832;51.146;14.024;2023-12-14T12:09:31;97961.19;;;3.91
71960;BMP280;59832;51.146;14.024;2023-12-14T12:11:57;97966.66;;;3.84
71960;BMP280;59832;51.146;14.024;2023-12-14T12:14:24;97974.38;;;3.88
71960;BMP280;59832;51.146;14.024;2023-12-14T12:16:50;97972.13;;;3.95
71960;BMP280;59832;51.146;14.024;2023-12-14T12:19:19;97974.66;;;3.95
71960;BMP280;59832;51.146;14.024;2023-12-14T12:21:45;97971.13;;;3.87
71960;BMP280;59832;51.146;14.024;2023-12-14T12:24:12;97980.56;;;3.82
71960;BMP280;59832;51.146;14.024;2023-12-14T12:26:52;97980.84;;;3.80
71960;BMP280;59832;51.146;14.024;2023-12-14T12:29:18;97978.66;;;3.79
71960;BMP280;59832;51.146;14.024;2023-12-14T12:31:44;97985.00;;;3.76
71960;BMP280;59832;51.146;14.024;2023-12-14T12:34:11;97984.13;;;3.72
71960;BMP280;59832;51.146;14.024;2023-12-14T12:36:38;97983.97;;;3.77
71960;BMP280;59832;51.146;14.024;2023-12-14T12:39:06;97981.31;;;3.65
71960;BMP280;59832;51.146;14.024;2023-12-14T12:41:32;97987.53;;;3.68
71960;BMP280;59832;51.146;14.024;2023-12-14T12:44:08;97992.28;;;3.61
71960;BMP280;59832;51.146;14.024;2023-12-14T12:46:35;98003.94;;;3.57
71960;BMP280;59832;51.146;14.024;2023-12-14T12:49:02;98011.47;;;3.48
71960;BMP280;59832;51.146;14.024;2023-12-14T12:51:28;98009.25;;;3.46
71960;BMP280;59832;51.146;14.024;2023-12-14T12:53:55;98017.97;;;3.49
71960;BMP280;59832;51.146;14.024;2023-12-14T12:56:37;98014.91;;;3.43
71960;BMP280;59832;51.146;14.024;2023-12-14T12:59:04;98022.41;;;3.35
71960;BMP280;59832;51.146;14.024;2023-12-14T13:01:34;98021.19;;;3.24
71960;BMP280;59832;51.146;14.024;2023-12-14T13:04:01;98026.38;;;3.19
71960;BMP280;59832;51.146;14.024;2023-12-14T13:06:27;98029.63;;;3.28
71960;BMP280;59832;51.146;14.024;2023-12-14T13:08:54;98031.84;;;3.29
71960;BMP280;59832;51.146;14.024;2023-12-14T13:11:20;98034.97;;;3.26
71960;BMP280;59832;51.146;14.024;2023-12-14T13:13:47;98037.00;;;3.24
71960;BMP280;59832;51.146;14.024;2023-12-14T13:16:14;98045.41;;;3.11
71960;BMP280;59832;51.146;14.024;2023-12-14T13:18:43;98043.34;;;3.13
71960;BMP280;59832;51.146;14.024;2023-12-14T13:21:10;98046.13;;;3.11
71960;BMP280;59832;51.146;14.024;2023-12-14T13:23:36;98054.59;;;3.16
71960;BMP280;59832;51.146;14.024;2023-12-14T13:26:02;98064.38;;;3.17
71960;BMP280;59832;51.146;14.024;2023-12-14T13:28:29;98067.47;;;3.14
71960;BMP280;59832;51.146;14.024;2023-12-14T13:30:55;98070.91;;;3.18
71960;BMP280;59832;51.146;14.024;2023-12-14T13:33:22;98070.91;;;3.18
71960;BMP280;59832;51.146;14.024;2023-12-14T13:35:52;98066.72;;;3.13
71960;BMP280;59832;51.146;14.024;2023-12-14T13:38:19;98073.19;;;3.06
71960;BMP280;59832;51.146;14.024;2023-12-14T13:40:45;98076.31;;;3.11
71960;BMP280;59832;51.146;14.024;2023-12-14T13:43:12;98076.06;;;3.22
71960;BMP280;59832;51.146;14.024;2023-12-14T13:45:38;98084.50;;;3.26
71960;BMP280;59832;51.146;14.024;2023-12-14T13:48:05;98092.19;;;3.21
71960;BMP280;59832;51.146;14.024;2023-12-14T13:50:33;98093.25;;;3.20
71960;BMP280;59832;51.146;14.024;2023-12-14T13:53:00;98096.34;;;3.25
71960;BMP280;59832;51.146;14.024;2023-12-14T13:55:28;98103.75;;;3.22
71960;BMP280;59832;51.146;14.024;2023-12-14T13:57:54;98112.16;;;3.17
71960;BMP280;59832;51.146;14.024;2023-12-14T14:00:24;98120.16;;;3.19
71960;BMP280;59832;51.146;14.024;2023-12-14T14:02:50;98122.53;;;3.24
71960;BMP280;59832;51.146;14.024;2023-12-14T14:05:17;98134.00;;;3.08
71960;BMP280;59832;51.146;14.024;2023-12-14T14:07:44;98136.56;;;3.17
71960;BMP280;59832;51.146;14.024;2023-12-14T14:10:10;98149.22;;;3.11